sensor_id;sensor_type;location;lat;lon;timestamp;P1;durP1;ratioP1;P2;durP2;ratioP2
11348;SDS011;5729;43.570;27.826;2022-11-20T00:01:06;15.30;;;5.47;;
11348;SDS011;5729;43.570;27.826;2022-11-20T00:03:39;13.10;;;5.55;;
11348;SDS011;5729;43.570;27.826;2022-11-20T00:06:06;20.67;;;5.40;;
11348;SDS011;5729;43.570;27.826;2022-11-20T00:08:33;14.25;;;5.72;;
11348;SDS011;5729;43.570;27.826;2022-11-20T00:11:03;12.30;;;6.00;;
11348;SDS011;5729;43.570;27.826;2022-11-20T00:13:33;13.90;;;5.57;;
11348;SDS011;5729;43.570;27.826;2022-11-20T00:15:59;15.50;;;6.10;;
11348;SDS011;5729;43.570;27.826;2022-11-20T00:18:27;16.70;;;5.15;;
11348;SDS011;5729;43.570;27.826;2022-11-20T00:20:52;9.77;;;5.30;;
11348;SDS011;5729;43.570;27.826;2022-11-20T00:23:18;11.48;;;5.35;;
11348;SDS011;5729;43.570;27.826;2022-11-20T00:25:44;12.57;;;5.30;;
11348;SDS011;5729;43.570;27.826;2022-11-20T00:28:09;18.15;;;6.22;;
11348;SDS011;5729;43.570;27.826;2022-11-20T00:30:35;16.05;;;5.75;;
11348;SDS011;5729;43.570;27.826;2022-11-20T00:33:00;12.55;;;5.18;;
11348;SDS011;5729;43.570;27.826;2022-11-20T00:35:26;11.98;;;5.47;;
11348;SDS011;5729;43.570;27.826;2022-11-20T00:37:51;18.35;;;6.25;;
11348;SDS011;5729;43.570;27.826;2022-11-20T00:40:17;11.23;;;5.03;;
11348;SDS011;5729;43.570;27.826;2022-11-20T00:42:44;21.80;;;5.55;;
11348;SDS011;5729;43.570;27.826;2022-11-20T00:45:11;15.23;;;5.10;;
11348;SDS011;5729;43.570;27.826;2022-11-20T00:47:37;11.60;;;5.20;;
11348;SDS011;5729;43.570;27.826;2022-11-20T00:50:03;20.45;;;5.10;;
11348;SDS011;5729;43.570;27.826;2022-11-20T00:52:28;16.80;;;5.55;;
11348;SDS011;5729;43.570;27.826;2022-11-20T00:54:54;17.17;;;5.20;;
11348;SDS011;5729;43.570;27.826;2022-11-20T00:57:19;16.75;;;5.15;;
11348;SDS011;5729;43.570;27.826;2022-11-20T00:59:45;12.73;;;4.68;;
11348;SDS011;5729;43.570;27.826;2022-11-20T01:02:10;16.60;;;5.90;;
11348;SDS011;5729;43.570;27.826;2022-11-20T01:04:36;16.15;;;5.28;;
11348;SDS011;5729;43.570;27.826;2022-11-20T01:07:01;12.38;;;4.47;;
11348;SDS011;5729;43.570;27.826;2022-11-20T01:09:27;12.65;;;4.53;;
11348;SDS011;5729;43.570;27.826;2022-11-20T01:11:52;16.92;;;4.93;;
11348;SDS011;5729;43.570;27.826;2022-11-20T01:14:18;12.93;;;4.57;;
11348;SDS011;5729;43.570;27.826;2022-11-20T01:16:49;19.38;;;4.90;;
11348;SDS011;5729;43.570;27.826;2022-11-20T01:19:16;13.80;;;5.15;;
11348;SDS011;5729;43.570;27.826;2022-11-20T01:21:44;21.23;;;5.20;;
11348;SDS011;5729;43.570;27.826;2022-11-20T01:24:12;24.90;;;5.43;;
11348;SDS011;5729;43.570;27.826;2022-11-20T01:26:40;13.32;;;4.68;;
11348;SDS011;5729;43.570;27.826;2022-11-20T01:29:06;15.27;;;5.25;;
11348;SDS011;5729;43.570;27.826;2022-11-20T01:31:37;12.32;;;4.68;;
11348;SDS011;5729;43.570;27.826;2022-11-20T01:34:06;14.10;;;4.70;;
11348;SDS011;5729;43.570;27.826;2022-11-20T01:36:34;13.43;;;4.32;;
11348;SDS011;5729;43.570;27.826;2022-11-20T01:39:03;12.13;;;4.30;;
11348;SDS011;5729;43.570;27.826;2022-11-20T01:41:31;12.45;;;4.78;;
11348;SDS011;5729;43.570;27.826;2022-11-20T01:44:17;14.38;;;4.35;;
11348;SDS011;5729;43.570;27.826;2022-11-20T01:46:56;12.77;;;4.10;;
11348;SDS011;5729;43.570;27.826;2022-11-20T01:49:45;12.35;;;4.05;;
11348;SDS011;5729;43.570;27.826;2022-11-20T01:52:16;12.90;;;3.80;;
11348;SDS011;5729;43.570;27.826;2022-11-20T01:54:52;11.38;;;3.80;;
11348;SDS011;5729;43.570;27.826;2022-11-20T01:57:23;12.73;;;4.38;;
11348;SDS011;5729;43.570;27.826;2022-11-20T02:00:12;15.13;;;4.07;;
11348;SDS011;5729;43.570;27.826;2022-11-20T02:02:42;12.80;;;4.20;;
11348;SDS011;5729;43.570;27.826;2022-11-20T02:08:04;14.50;;;3.83;;
11348;SDS011;5729;43.570;27.826;2022-11-20T02:10:31;10.13;;;4.00;;
11348;SDS011;5729;43.570;27.826;2022-11-20T02:12:57;12.98;;;4.28;;
11348;SDS011;5729;43.570;27.826;2022-11-20T02:15:41;21.42;;;5.07;;
11348;SDS011;5729;43.570;27.826;2022-11-20T02:18:08;16.30;;;4.38;;
11348;SDS011;5729;43.570;27.826;2022-11-20T02:20:35;14.35;;;4.70;;
11348;SDS011;5729;43.570;27.826;2022-11-20T02:25:34;9.93;;;3.40;;
11348;SDS011;5729;43.570;27.826;2022-11-20T02:28:01;11.85;;;4.10;;
11348;SDS011;5729;43.570;27.826;2022-11-20T02:30:28;12.20;;;3.95;;
11348;SDS011;5729;43.570;27.826;2022-11-20T02:32:53;15.38;;;4.13;;
11348;SDS011;5729;43.570;27.826;2022-11-20T02:37:44;13.70;;;4.40;;
11348;SDS011;5729;43.570;27.826;2022-11-20T02:40:12;9.50;;;3.95;;
11348;SDS011;5729;43.570;27.826;2022-11-20T02:42:38;15.55;;;4.50;;
11348;SDS011;5729;43.570;27.826;2022-11-20T02:45:04;9.80;;;3.55;;
11348;SDS011;5729;43.570;27.826;2022-11-20T02:47:30;18.80;;;4.50;;
11348;SDS011;5729;43.570;27.826;2022-11-20T02:49:56;13.23;;;4.57;;
11348;SDS011;5729;43.570;27.826;2022-11-20T02:52:21;18.88;;;4.95;;
11348;SDS011;5729;43.570;27.826;2022-11-20T02:54:47;12.95;;;4.05;;
11348;SDS011;5729;43.570;27.826;2022-11-20T02:57:13;11.60;;;4.45;;
11348;SDS011;5729;43.570;27.826;2022-11-20T02:59:38;14.52;;;4.10;;
11348;SDS011;5729;43.570;27.826;2022-11-20T03:02:04;13.55;;;3.72;;
11348;SDS011;5729;43.570;27.826;2022-11-20T03:04:30;11.73;;;3.50;;
11348;SDS011;5729;43.570;27.826;2022-11-20T03:06:56;17.90;;;4.72;;
11348;SDS011;5729;43.570;27.826;2022-11-20T03:09:21;14.43;;;3.65;;
11348;SDS011;5729;43.570;27.826;2022-11-20T03:11:47;12.02;;;3.80;;
11348;SDS011;5729;43.570;27.826;2022-11-20T03:14:12;14.43;;;4.55;;
11348;SDS011;5729;43.570;27.826;2022-11-20T03:16:38;11.50;;;3.50;;
11348;SDS011;5729;43.570;27.826;2022-11-20T03:19:03;11.52;;;4.35;;
11348;SDS011;5729;43.570;27.826;2022-11-20T03:21:29;13.98;;;4.47;;
11348;SDS011;5729;43.570;27.826;2022-11-20T03:23:54;13.95;;;3.80;;
11348;SDS011;5729;43.570;27.826;2022-11-20T03:26:21;14.73;;;4.15;;
11348;SDS011;5729;43.570;27.826;2022-11-20T03:28:49;12.45;;;3.80;;
11348;SDS011;5729;43.570;27.826;2022-11-20T03:31:17;14.15;;;4.13;;
11348;SDS011;5729;43.570;27.826;2022-11-20T03:33:44;12.90;;;4.35;;
11348;SDS011;5729;43.570;27.826;2022-11-20T03:36:10;9.43;;;3.92;;
11348;SDS011;5729;43.570;27.826;2022-11-20T03:38:37;16.75;;;3.97;;
11348;SDS011;5729;43.570;27.826;2022-11-20T03:41:05;16.08;;;3.80;;
11348;SDS011;5729;43.570;27.826;2022-11-20T03:43:32;12.40;;;3.72;;
11348;SDS011;5729;43.570;27.826;2022-11-20T03:45:58;13.32;;;3.47;;
11348;SDS011;5729;43.570;27.826;2022-11-20T03:48:24;11.35;;;3.60;;
11348;SDS011;5729;43.570;27.826;2022-11-20T03:50:50;15.95;;;3.60;;
11348;SDS011;5729;43.570;27.826;2022-11-20T03:53:16;12.05;;;3.70;;
11348;SDS011;5729;43.570;27.826;2022-11-20T03:55:42;7.68;;;3.33;;
11348;SDS011;5729;43.570;27.826;2022-11-20T03:58:08;11.65;;;3.28;;
11348;SDS011;5729;43.570;27.826;2022-11-20T04:00:34;17.05;;;4.78;;
11348;SDS011;5729;43.570;27.826;2022-11-20T04:03:00;11.13;;;3.60;;
11348;SDS011;5729;43.570;27.826;2022-11-20T04:05:26;11.13;;;3.35;;
11348;SDS011;5729;43.570;27.826;2022-11-20T04:07:52;17.00;;;4.35;;
11348;SDS011;5729;43.570;27.826;2022-11-20T04:10:17;8.30;;;3.17;;
11348;SDS011;5729;43.570;27.826;2022-11-20T04:12:43;10.80;;;3.00;;
11348;SDS011;5729;43.570;27.826;2022-11-20T04:15:09;12.43;;;3.45;;
11348;SDS011;5729;43.570;27.826;2022-11-20T04:17:34;10.68;;;3.60;;
11348;SDS011;5729;43.570;27.826;2022-11-20T04:20:00;12.73;;;4.07;;
11348;SDS011;5729;43.570;27.826;2022-11-20T04:22:26;9.75;;;3.35;;
11348;SDS011;5729;43.570;27.826;2022-11-20T04:24:52;10.63;;;3.78;;
11348;SDS011;5729;43.570;27.826;2022-11-20T04:27:17;11.93;;;3.92;;
11348;SDS011;5729;43.570;27.826;2022-11-20T04:29:43;15.65;;;3.83;;
11348;SDS011;5729;43.570;27.826;2022-11-20T04:32:08;12.80;;;3.70;;
11348;SDS011;5729;43.570;27.826;2022-11-20T04:34:34;12.95;;;3.65;;
11348;SDS011;5729;43.570;27.826;2022-11-20T04:37:00;12.52;;;4.03;;
11348;SDS011;5729;43.570;27.826;2022-11-20T04:39:25;12.73;;;3.92;;
11348;SDS011;5729;43.570;27.826;2022-11-20T04:41:51;11.25;;;3.80;;
11348;SDS011;5729;43.570;27.826;2022-11-20T04:44:36;10.48;;;3.72;;
11348;SDS011;5729;43.570;27.826;2022-11-20T04:47:01;16.95;;;4.20;;
11348;SDS011;5729;43.570;27.826;2022-11-20T04:49:27;14.63;;;3.90;;
11348;SDS011;5729;43.570;27.826;2022-11-20T04:51:53;9.93;;;3.22;;
11348;SDS011;5729;43.570;27.826;2022-11-20T04:54:18;13.68;;;3.35;;
11348;SDS011;5729;43.570;27.826;2022-11-20T04:56:47;13.80;;;3.78;;
11348;SDS011;5729;43.570;27.826;2022-11-20T04:59:13;10.10;;;3.80;;
11348;SDS011;5729;43.570;27.826;2022-11-20T05:01:38;14.93;;;3.85;;
11348;SDS011;5729;43.570;27.826;2022-11-20T05:04:04;13.10;;;3.53;;
11348;SDS011;5729;43.570;27.826;2022-11-20T05:06:31;15.00;;;4.35;;
11348;SDS011;5729;43.570;27.826;2022-11-20T05:08:57;17.48;;;4.13;;
11348;SDS011;5729;43.570;27.826;2022-11-20T05:11:22;10.95;;;4.05;;
11348;SDS011;5729;43.570;27.826;2022-11-20T05:13:49;14.65;;;4.30;;
11348;SDS011;5729;43.570;27.826;2022-11-20T05:16:17;10.05;;;3.80;;
11348;SDS011;5729;43.570;27.826;2022-11-20T05:18:44;12.38;;;3.95;;
11348;SDS011;5729;43.570;27.826;2022-11-20T05:21:10;13.10;;;3.22;;
11348;SDS011;5729;43.570;27.826;2022-11-20T05:23:37;13.30;;;3.42;;
11348;SDS011;5729;43.570;27.826;2022-11-20T05:26:03;16.17;;;3.63;;
11348;SDS011;5729;43.570;27.826;2022-11-20T05:28:30;13.23;;;2.97;;
11348;SDS011;5729;43.570;27.826;2022-11-20T05:31:04;13.52;;;3.53;;
11348;SDS011;5729;43.570;27.826;2022-11-20T05:33:49;14.48;;;3.53;;
11348;SDS011;5729;43.570;27.826;2022-11-20T05:36:16;13.27;;;3.72;;
11348;SDS011;5729;43.570;27.826;2022-11-20T05:38:42;15.48;;;3.65;;
11348;SDS011;5729;43.570;27.826;2022-11-20T05:41:15;11.43;;;3.53;;
11348;SDS011;5729;43.570;27.826;2022-11-20T05:43:43;14.43;;;3.50;;
11348;SDS011;5729;43.570;27.826;2022-11-20T05:46:11;14.10;;;3.15;;
11348;SDS011;5729;43.570;27.826;2022-11-20T05:48:38;14.82;;;2.90;;
11348;SDS011;5729;43.570;27.826;2022-11-20T05:51:05;10.32;;;2.88;;
11348;SDS011;5729;43.570;27.826;2022-11-20T05:53:33;12.88;;;3.38;;
11348;SDS011;5729;43.570;27.826;2022-11-20T05:56:00;13.88;;;2.55;;
11348;SDS011;5729;43.570;27.826;2022-11-20T05:58:27;11.15;;;3.33;;
11348;SDS011;5729;43.570;27.826;2022-11-20T06:00:52;15.77;;;3.47;;
11348;SDS011;5729;43.570;27.826;2022-11-20T06:03:19;16.15;;;3.03;;
11348;SDS011;5729;43.570;27.826;2022-11-20T06:05:44;14.00;;;3.35;;
11348;SDS011;5729;43.570;27.826;2022-11-20T06:08:10;11.85;;;3.33;;
11348;SDS011;5729;43.570;27.826;2022-11-20T06:10:35;11.48;;;3.30;;
11348;SDS011;5729;43.570;27.826;2022-11-20T06:13:00;10.65;;;3.03;;
11348;SDS011;5729;43.570;27.826;2022-11-20T06:15:26;12.73;;;4.07;;
11348;SDS011;5729;43.570;27.826;2022-11-20T06:17:54;11.73;;;3.05;;
11348;SDS011;5729;43.570;27.826;2022-11-20T06:20:23;7.78;;;2.97;;
11348;SDS011;5729;43.570;27.826;2022-11-20T06:22:48;11.60;;;3.67;;
11348;SDS011;5729;43.570;27.826;2022-11-20T06:25:14;16.23;;;3.50;;
11348;SDS011;5729;43.570;27.826;2022-11-20T06:27:39;14.65;;;3.30;;
11348;SDS011;5729;43.570;27.826;2022-11-20T06:30:05;15.55;;;3.25;;
11348;SDS011;5729;43.570;27.826;2022-11-20T06:32:30;11.10;;;2.42;;
11348;SDS011;5729;43.570;27.826;2022-11-20T06:34:56;12.38;;;3.25;;
11348;SDS011;5729;43.570;27.826;2022-11-20T06:37:21;15.35;;;3.25;;
11348;SDS011;5729;43.570;27.826;2022-11-20T06:39:47;15.13;;;3.50;;
11348;SDS011;5729;43.570;27.826;2022-11-20T06:42:13;8.70;;;2.92;;
11348;SDS011;5729;43.570;27.826;2022-11-20T06:44:39;10.18;;;3.78;;
11348;SDS011;5729;43.570;27.826;2022-11-20T06:47:04;12.75;;;3.10;;
11348;SDS011;5729;43.570;27.826;2022-11-20T06:49:30;13.05;;;2.80;;
11348;SDS011;5729;43.570;27.826;2022-11-20T06:51:55;18.45;;;3.38;;
11348;SDS011;5729;43.570;27.826;2022-11-20T06:54:20;13.15;;;3.15;;
11348;SDS011;5729;43.570;27.826;2022-11-20T06:56:46;10.38;;;3.55;;
11348;SDS011;5729;43.570;27.826;2022-11-20T06:59:13;7.32;;;2.78;;
11348;SDS011;5729;43.570;27.826;2022-11-20T07:01:38;14.15;;;3.17;;
11348;SDS011;5729;43.570;27.826;2022-11-20T07:04:04;12.40;;;3.53;;
11348;SDS011;5729;43.570;27.826;2022-11-20T07:06:29;7.90;;;2.70;;
11348;SDS011;5729;43.570;27.826;2022-11-20T07:08:55;11.50;;;3.17;;
11348;SDS011;5729;43.570;27.826;2022-11-20T07:11:21;8.43;;;2.90;;
11348;SDS011;5729;43.570;27.826;2022-11-20T07:13:46;8.63;;;3.00;;
11348;SDS011;5729;43.570;27.826;2022-11-20T07:16:11;9.77;;;2.75;;
11348;SDS011;5729;43.570;27.826;2022-11-20T07:18:37;8.25;;;2.20;;
11348;SDS011;5729;43.570;27.826;2022-11-20T07:21:04;8.82;;;3.35;;
11348;SDS011;5729;43.570;27.826;2022-11-20T07:23:31;16.48;;;3.25;;
11348;SDS011;5729;43.570;27.826;2022-11-20T07:25:57;8.27;;;2.95;;
11348;SDS011;5729;43.570;27.826;2022-11-20T07:28:23;8.13;;;3.17;;
11348;SDS011;5729;43.570;27.826;2022-11-20T07:30:52;11.05;;;3.05;;
11348;SDS011;5729;43.570;27.826;2022-11-20T07:33:18;12.07;;;3.10;;
11348;SDS011;5729;43.570;27.826;2022-11-20T07:35:44;17.63;;;3.08;;
11348;SDS011;5729;43.570;27.826;2022-11-20T07:38:10;10.80;;;2.85;;
11348;SDS011;5729;43.570;27.826;2022-11-20T07:40:35;8.82;;;3.10;;
11348;SDS011;5729;43.570;27.826;2022-11-20T07:43:01;11.27;;;3.20;;
11348;SDS011;5729;43.570;27.826;2022-11-20T07:45:26;9.60;;;2.85;;
11348;SDS011;5729;43.570;27.826;2022-11-20T07:47:51;12.98;;;4.00;;
11348;SDS011;5729;43.570;27.826;2022-11-20T07:50:17;11.07;;;3.60;;
11348;SDS011;5729;43.570;27.826;2022-11-20T07:52:44;9.63;;;3.17;;
11348;SDS011;5729;43.570;27.826;2022-11-20T07:55:10;13.75;;;3.45;;
11348;SDS011;5729;43.570;27.826;2022-11-20T07:57:36;8.48;;;2.53;;
11348;SDS011;5729;43.570;27.826;2022-11-20T08:00:02;14.27;;;3.30;;
11348;SDS011;5729;43.570;27.826;2022-11-20T08:02:29;13.23;;;3.15;;
11348;SDS011;5729;43.570;27.826;2022-11-20T08:04:54;14.60;;;2.90;;
11348;SDS011;5729;43.570;27.826;2022-11-20T08:07:20;11.23;;;2.80;;
11348;SDS011;5729;43.570;27.826;2022-11-20T08:09:45;8.95;;;3.50;;
11348;SDS011;5729;43.570;27.826;2022-11-20T08:12:17;10.50;;;2.45;;
11348;SDS011;5729;43.570;27.826;2022-11-20T08:15:03;12.70;;;3.55;;
11348;SDS011;5729;43.570;27.826;2022-11-20T08:17:29;11.20;;;3.13;;
11348;SDS011;5729;43.570;27.826;2022-11-20T08:19:55;8.88;;;2.85;;
11348;SDS011;5729;43.570;27.826;2022-11-20T08:22:20;11.00;;;3.05;;
11348;SDS011;5729;43.570;27.826;2022-11-20T08:24:46;9.15;;;2.67;;
11348;SDS011;5729;43.570;27.826;2022-11-20T08:27:11;19.45;;;3.40;;
11348;SDS011;5729;43.570;27.826;2022-11-20T08:29:37;10.15;;;3.10;;
11348;SDS011;5729;43.570;27.826;2022-11-20T08:32:02;18.60;;;3.65;;
11348;SDS011;5729;43.570;27.826;2022-11-20T08:34:28;10.73;;;3.13;;
11348;SDS011;5729;43.570;27.826;2022-11-20T08:36:53;7.45;;;2.42;;
11348;SDS011;5729;43.570;27.826;2022-11-20T08:39:18;16.20;;;3.67;;
11348;SDS011;5729;43.570;27.826;2022-11-20T08:41:44;8.05;;;2.50;;
11348;SDS011;5729;43.570;27.826;2022-11-20T08:44:09;13.27;;;3.30;;
11348;SDS011;5729;43.570;27.826;2022-11-20T08:46:36;10.77;;;3.25;;
11348;SDS011;5729;43.570;27.826;2022-11-20T08:49:04;11.38;;;3.40;;
11348;SDS011;5729;43.570;27.826;2022-11-20T08:51:31;10.13;;;3.75;;
11348;SDS011;5729;43.570;27.826;2022-11-20T08:53:57;14.50;;;4.00;;
11348;SDS011;5729;43.570;27.826;2022-11-20T08:56:22;11.48;;;3.55;;
11348;SDS011;5729;43.570;27.826;2022-11-20T08:58:49;21.05;;;3.78;;
11348;SDS011;5729;43.570;27.826;2022-11-20T09:01:16;14.45;;;3.53;;
11348;SDS011;5729;43.570;27.826;2022-11-20T09:03:42;16.80;;;3.85;;
11348;SDS011;5729;43.570;27.826;2022-11-20T09:06:07;10.93;;;3.67;;
11348;SDS011;5729;43.570;27.826;2022-11-20T09:08:33;10.13;;;3.13;;
11348;SDS011;5729;43.570;27.826;2022-11-20T09:11:00;9.27;;;2.92;;
11348;SDS011;5729;43.570;27.826;2022-11-20T09:13:26;8.15;;;3.13;;
11348;SDS011;5729;43.570;27.826;2022-11-20T09:15:56;12.93;;;3.42;;
11348;SDS011;5729;43.570;27.826;2022-11-20T09:18:23;13.38;;;3.97;;
11348;SDS011;5729;43.570;27.826;2022-11-20T09:20:55;14.32;;;3.53;;
11348;SDS011;5729;43.570;27.826;2022-11-20T09:23:21;13.13;;;4.38;;
11348;SDS011;5729;43.570;27.826;2022-11-20T09:25:47;11.80;;;3.28;;
11348;SDS011;5729;43.570;27.826;2022-11-20T09:28:12;11.77;;;3.92;;
11348;SDS011;5729;43.570;27.826;2022-11-20T09:30:38;10.85;;;4.13;;
11348;SDS011;5729;43.570;27.826;2022-11-20T09:33:04;9.45;;;2.60;;
11348;SDS011;5729;43.570;27.826;2022-11-20T09:35:31;16.52;;;4.07;;
11348;SDS011;5729;43.570;27.826;2022-11-20T09:37:56;15.18;;;3.58;;
11348;SDS011;5729;43.570;27.826;2022-11-20T09:40:26;13.35;;;4.22;;
11348;SDS011;5729;43.570;27.826;2022-11-20T09:46:05;18.00;;;3.72;;
11348;SDS011;5729;43.570;27.826;2022-11-20T09:49:15;11.57;;;3.45;;
11348;SDS011;5729;43.570;27.826;2022-11-20T09:54:17;11.02;;;3.13;;
11348;SDS011;5729;43.570;27.826;2022-11-20T09:56:53;19.38;;;3.35;;
11348;SDS011;5729;43.570;27.826;2022-11-20T10:05:18;14.23;;;3.67;;
11348;SDS011;5729;43.570;27.826;2022-11-20T10:07:51;14.32;;;3.05;;
11348;SDS011;5729;43.570;27.826;2022-11-20T10:29:09;13.10;;;3.80;;
11348;SDS011;5729;43.570;27.826;2022-11-20T10:31:37;14.82;;;3.90;;
11348;SDS011;5729;43.570;27.826;2022-11-20T10:34:14;11.52;;;3.53;;
11348;SDS011;5729;43.570;27.826;2022-11-20T10:36:55;11.02;;;3.63;;
11348;SDS011;5729;43.570;27.826;2022-11-20T10:39:27;10.13;;;3.53;;
11348;SDS011;5729;43.570;27.826;2022-11-20T10:41:59;17.35;;;4.28;;
11348;SDS011;5729;43.570;27.826;2022-11-20T10:44:29;15.15;;;4.55;;
11348;SDS011;5729;43.570;27.826;2022-11-20T10:47:14;13.85;;;3.92;;
11348;SDS011;5729;43.570;27.826;2022-11-20T10:49:42;18.48;;;4.50;;
11348;SDS011;5729;43.570;27.826;2022-11-20T10:58:03;13.60;;;4.10;;
11348;SDS011;5729;43.570;27.826;2022-11-20T11:00:36;12.43;;;3.85;;
11348;SDS011;5729;43.570;27.826;2022-11-20T11:03:02;14.05;;;3.90;;
11348;SDS011;5729;43.570;27.826;2022-11-20T11:05:36;16.88;;;3.90;;
11348;SDS011;5729;43.570;27.826;2022-11-20T11:08:12;14.32;;;3.55;;
11348;SDS011;5729;43.570;27.826;2022-11-20T11:10:43;14.93;;;4.10;;
11348;SDS011;5729;43.570;27.826;2022-11-20T11:13:21;15.30;;;4.47;;
11348;SDS011;5729;43.570;27.826;2022-11-20T11:15:49;14.32;;;8.85;;
11348;SDS011;5729;43.570;27.826;2022-11-20T11:18:28;12.85;;;9.05;;
11348;SDS011;5729;43.570;27.826;2022-11-20T11:21:02;15.95;;;11.80;;
11348;SDS011;5729;43.570;27.826;2022-11-20T11:23:39;19.98;;;13.88;;
11348;SDS011;5729;43.570;27.826;2022-11-20T11:26:19;26.17;;;18.00;;
11348;SDS011;5729;43.570;27.826;2022-11-20T11:28:53;21.70;;;16.30;;
11348;SDS011;5729;43.570;27.826;2022-11-20T11:31:22;24.60;;;18.23;;
11348;SDS011;5729;43.570;27.826;2022-11-20T11:33:49;26.33;;;18.85;;
11348;SDS011;5729;43.570;27.826;2022-11-20T11:36:19;27.42;;;19.17;;
11348;SDS011;5729;43.570;27.826;2022-11-20T11:38:48;28.55;;;18.70;;
11348;SDS011;5729;43.570;27.826;2022-11-20T11:41:20;27.23;;;18.13;;
11348;SDS011;5729;43.570;27.826;2022-11-20T11:43:54;27.52;;;19.20;;
11348;SDS011;5729;43.570;27.826;2022-11-20T11:46:44;26.67;;;17.98;;
11348;SDS011;5729;43.570;27.826;2022-11-20T11:49:18;25.20;;;18.20;;
11348;SDS011;5729;43.570;27.826;2022-11-20T11:57:49;28.23;;;20.98;;
11348;SDS011;5729;43.570;27.826;2022-11-20T12:00:13;24.15;;;18.23;;
11348;SDS011;5729;43.570;27.826;2022-11-20T12:15:48;19.80;;;15.27;;
11348;SDS011;5729;43.570;27.826;2022-11-20T12:18:15;22.50;;;14.68;;
11348;SDS011;5729;43.570;27.826;2022-11-20T12:37:30;35.83;;;21.40;;
11348;SDS011;5729;43.570;27.826;2022-11-20T12:54:24;17.25;;;9.18;;
11348;SDS011;5729;43.570;27.826;2022-11-20T13:00:10;91.15;;;52.00;;
11348;SDS011;5729;43.570;27.826;2022-11-20T13:08:03;21.42;;;11.38;;
11348;SDS011;5729;43.570;27.826;2022-11-20T13:10:48;23.60;;;13.68;;
11348;SDS011;5729;43.570;27.826;2022-11-20T13:13:31;22.63;;;13.13;;
11348;SDS011;5729;43.570;27.826;2022-11-20T13:16:19;34.28;;;14.70;;
11348;SDS011;5729;43.570;27.826;2022-11-20T13:18:50;25.33;;;12.63;;
11348;SDS011;5729;43.570;27.826;2022-11-20T13:21:20;31.33;;;14.15;;
11348;SDS011;5729;43.570;27.826;2022-11-20T13:24:32;25.25;;;18.08;;
11348;SDS011;5729;43.570;27.826;2022-11-20T13:27:02;27.52;;;17.52;;
11348;SDS011;5729;43.570;27.826;2022-11-20T13:29:44;31.05;;;18.40;;
11348;SDS011;5729;43.570;27.826;2022-11-20T13:32:14;26.85;;;17.08;;
11348;SDS011;5729;43.570;27.826;2022-11-20T13:34:55;29.38;;;18.38;;
11348;SDS011;5729;43.570;27.826;2022-11-20T13:37:29;25.83;;;17.23;;
11348;SDS011;5729;43.570;27.826;2022-11-20T13:42:56;30.42;;;17.88;;
11348;SDS011;5729;43.570;27.826;2022-11-20T13:45:53;26.40;;;20.17;;
11348;SDS011;5729;43.570;27.826;2022-11-20T13:48:28;33.33;;;19.70;;
11348;SDS011;5729;43.570;27.826;2022-11-20T13:53:48;24.30;;;17.17;;
11348;SDS011;5729;43.570;27.826;2022-11-20T13:59:28;23.58;;;13.80;;
11348;SDS011;5729;43.570;27.826;2022-11-20T14:01:55;21.35;;;14.20;;
11348;SDS011;5729;43.570;27.826;2022-11-20T14:04:33;18.55;;;13.27;;
11348;SDS011;5729;43.570;27.826;2022-11-20T14:07:00;18.88;;;13.93;;
11348;SDS011;5729;43.570;27.826;2022-11-20T14:09:33;20.70;;;12.77;;
11348;SDS011;5729;43.570;27.826;2022-11-20T14:11:59;19.77;;;14.48;;
11348;SDS011;5729;43.570;27.826;2022-11-20T14:14:26;23.00;;;18.33;;
11348;SDS011;5729;43.570;27.826;2022-11-20T14:17:17;20.70;;;13.48;;
11348;SDS011;5729;43.570;27.826;2022-11-20T14:19:43;26.25;;;12.68;;
11348;SDS011;5729;43.570;27.826;2022-11-20T14:24:45;20.63;;;11.00;;
11348;SDS011;5729;43.570;27.826;2022-11-20T14:27:25;20.92;;;12.02;;
11348;SDS011;5729;43.570;27.826;2022-11-20T14:29:50;17.55;;;11.25;;
11348;SDS011;5729;43.570;27.826;2022-11-20T14:32:19;24.08;;;14.35;;
11348;SDS011;5729;43.570;27.826;2022-11-20T14:34:49;33.95;;;17.00;;
11348;SDS011;5729;43.570;27.826;2022-11-20T14:37:22;29.42;;;17.02;;
11348;SDS011;5729;43.570;27.826;2022-11-20T14:39:53;30.35;;;20.85;;
11348;SDS011;5729;43.570;27.826;2022-11-20T14:42:23;45.88;;;29.75;;
11348;SDS011;5729;43.570;27.826;2022-11-20T14:44:51;46.45;;;27.67;;
11348;SDS011;5729;43.570;27.826;2022-11-20T14:47:21;44.88;;;27.55;;
11348;SDS011;5729;43.570;27.826;2022-11-20T14:49:48;44.97;;;28.27;;
11348;SDS011;5729;43.570;27.826;2022-11-20T14:52:17;39.42;;;25.88;;
11348;SDS011;5729;43.570;27.826;2022-11-20T14:54:49;41.95;;;23.83;;
11348;SDS011;5729;43.570;27.826;2022-11-20T14:57:23;45.90;;;24.45;;
11348;SDS011;5729;43.570;27.826;2022-11-20T15:02:43;38.50;;;26.33;;
11348;SDS011;5729;43.570;27.826;2022-11-20T15:05:10;29.92;;;18.30;;
11348;SDS011;5729;43.570;27.826;2022-11-20T15:07:37;29.52;;;19.80;;
11348;SDS011;5729;43.570;27.826;2022-11-20T15:10:19;27.52;;;16.50;;
11348;SDS011;5729;43.570;27.826;2022-11-20T15:12:49;37.50;;;24.15;;
11348;SDS011;5729;43.570;27.826;2022-11-20T15:15:18;33.90;;;21.98;;
11348;SDS011;5729;43.570;27.826;2022-11-20T15:17:48;28.23;;;17.23;;
11348;SDS011;5729;43.570;27.826;2022-11-20T15:20:14;35.33;;;24.35;;
11348;SDS011;5729;43.570;27.826;2022-11-20T15:22:41;25.20;;;16.17;;
11348;SDS011;5729;43.570;27.826;2022-11-20T15:25:16;106.72;;;71.60;;
11348;SDS011;5729;43.570;27.826;2022-11-20T15:27:43;62.65;;;44.03;;
11348;SDS011;5729;43.570;27.826;2022-11-20T15:30:14;46.67;;;33.05;;
11348;SDS011;5729;43.570;27.826;2022-11-20T15:32:42;24.80;;;18.20;;
11348;SDS011;5729;43.570;27.826;2022-11-20T15:35:08;27.92;;;18.88;;
11348;SDS011;5729;43.570;27.826;2022-11-20T15:37:35;20.48;;;15.98;;
11348;SDS011;5729;43.570;27.826;2022-11-20T15:40:01;23.13;;;15.63;;
11348;SDS011;5729;43.570;27.826;2022-11-20T15:42:26;21.92;;;14.85;;
11348;SDS011;5729;43.570;27.826;2022-11-20T15:44:52;21.40;;;15.10;;
11348;SDS011;5729;43.570;27.826;2022-11-20T15:47:17;11.10;;;8.57;;
11348;SDS011;5729;43.570;27.826;2022-11-20T15:49:45;13.73;;;8.45;;
11348;SDS011;5729;43.570;27.826;2022-11-20T15:52:11;13.15;;;7.82;;
11348;SDS011;5729;43.570;27.826;2022-11-20T15:54:37;11.82;;;7.88;;
11348;SDS011;5729;43.570;27.826;2022-11-20T15:57:03;10.98;;;8.77;;
11348;SDS011;5729;43.570;27.826;2022-11-20T15:59:28;13.23;;;9.93;;
11348;SDS011;5729;43.570;27.826;2022-11-20T16:01:53;13.00;;;9.55;;
11348;SDS011;5729;43.570;27.826;2022-11-20T16:04:19;10.32;;;8.32;;
11348;SDS011;5729;43.570;27.826;2022-11-20T16:06:44;10.25;;;8.18;;
11348;SDS011;5729;43.570;27.826;2022-11-20T16:09:10;12.93;;;9.68;;
11348;SDS011;5729;43.570;27.826;2022-11-20T16:11:35;14.65;;;13.00;;
11348;SDS011;5729;43.570;27.826;2022-11-20T16:14:02;12.30;;;10.25;;
11348;SDS011;5729;43.570;27.826;2022-11-20T16:16:46;15.25;;;9.85;;
11348;SDS011;5729;43.570;27.826;2022-11-20T16:19:12;13.77;;;9.32;;
11348;SDS011;5729;43.570;27.826;2022-11-20T16:21:39;13.85;;;9.75;;
11348;SDS011;5729;43.570;27.826;2022-11-20T16:24:07;15.27;;;9.32;;
11348;SDS011;5729;43.570;27.826;2022-11-20T16:26:35;11.40;;;9.00;;
11348;SDS011;5729;43.570;27.826;2022-11-20T16:29:02;9.80;;;8.48;;
11348;SDS011;5729;43.570;27.826;2022-11-20T16:31:28;13.43;;;9.85;;
11348;SDS011;5729;43.570;27.826;2022-11-20T16:33:55;12.50;;;9.02;;
11348;SDS011;5729;43.570;27.826;2022-11-20T16:36:22;12.02;;;8.80;;
11348;SDS011;5729;43.570;27.826;2022-11-20T16:38:52;12.63;;;8.95;;